createdAt,value
2019-02-06T00:02:20.591Z,75.52
2019-02-06T00:04:47.649Z,75.62
2019-02-06T00:07:14.686Z,73.78
2019-02-06T00:09:41.738Z,83.03
2019-02-06T00:12:08.780Z,81.90
2019-02-06T00:14:36.122Z,85.60
2019-02-06T00:17:03.340Z,153.68
2019-02-06T00:19:30.358Z,88.67
2019-02-06T00:21:57.391Z,75.40
2019-02-06T00:24:24.462Z,76.75
2019-02-06T00:26:51.509Z,85.28
2019-02-06T00:29:18.561Z,80.20
2019-02-06T00:31:45.574Z,82.37
2019-02-06T00:34:12.803Z,78.92
2019-02-06T00:36:39.823Z,78.07
2019-02-06T00:39:08.307Z,138.62
2019-02-06T00:41:35.336Z,80.87
2019-02-06T00:44:02.366Z,83.20
2019-02-06T00:46:29.504Z,83.65
2019-02-06T00:48:56.567Z,73.00
2019-02-06T00:51:23.602Z,71.70
2019-02-06T00:53:50.647Z,71.10
2019-02-06T00:56:17.696Z,64.58
2019-02-06T00:58:44.725Z,60.83
2019-02-06T01:01:11.865Z,61.33
2019-02-06T01:03:38.898Z,71.00
2019-02-06T01:06:06.048Z,66.00
2019-02-06T01:08:33.087Z,76.67
2019-02-06T01:11:00.432Z,79.37
2019-02-06T01:13:27.470Z,79.85
2019-02-06T01:15:54.517Z,74.75
2019-02-06T01:18:21.554Z,71.15
2019-02-06T01:20:48.605Z,78.67
2019-02-06T01:23:16.506Z,76.33
2019-02-06T01:25:43.623Z,82.92
2019-02-06T01:28:10.672Z,84.20
2019-02-06T01:30:45.519Z,71.33
2019-02-06T01:33:12.821Z,77.67
2019-02-06T01:35:49.663Z,85.65
2019-02-06T01:38:08.796Z,77.10
2019-02-06T01:40:35.831Z,69.80
2019-02-06T01:43:02.872Z,91.45
2019-02-06T01:45:29.909Z,61.02
2019-02-06T01:47:57.269Z,67.70
2019-02-06T01:50:24.314Z,65.45
2019-02-06T01:52:51.368Z,63.42
2019-02-06T01:55:18.392Z,70.15
2019-02-06T01:57:45.443Z,64.22
2019-02-06T02:00:14.753Z,71.17
2019-02-06T02:02:41.797Z,74.65
2019-02-06T02:05:09.048Z,70.08
2019-02-06T02:07:36.072Z,64.05
2019-02-06T02:10:04.286Z,69.30
2019-02-06T02:12:31.427Z,74.95
2019-02-06T02:14:58.447Z,69.65
2019-02-06T02:17:25.474Z,63.38
2019-02-06T02:19:52.535Z,71.65
2019-02-06T02:22:19.574Z,76.20
2019-02-06T02:24:46.819Z,77.15
2019-02-06T02:27:13.870Z,93.70
2019-02-06T02:29:40.921Z,86.42
2019-02-06T02:32:07.951Z,77.27
2019-02-06T02:34:34.968Z,64.35
2019-02-06T02:37:01.980Z,74.37
2019-02-06T02:39:29.037Z,74.07
2019-02-06T02:41:56.408Z,85.77
2019-02-06T02:44:23.452Z,82.55
2019-02-06T02:46:50.510Z,75.37
2019-02-06T02:49:17.622Z,77.20
2019-02-06T02:51:44.690Z,77.80
2019-02-06T02:54:11.722Z,69.25
2019-02-06T02:56:38.759Z,64.87
2019-02-06T02:59:05.783Z,91.35
2019-02-06T03:01:44.089Z,73.57
2019-02-06T03:04:31.907Z,70.35
2019-02-06T03:06:58.935Z,80.62
2019-02-06T03:09:25.976Z,75.25
2019-02-06T03:11:53.400Z,71.53
2019-02-06T03:14:20.454Z,84.13
2019-02-06T03:16:47.505Z,84.75
2019-02-06T03:19:14.515Z,68.42
2019-02-06T03:21:41.538Z,70.25
2019-02-06T03:24:08.568Z,62.15
2019-02-06T03:26:35.602Z,66.90
2019-02-06T03:29:02.950Z,123.20
2019-02-06T03:31:30.303Z,84.32
2019-02-06T03:33:57.344Z,59.35
2019-02-06T03:36:24.383Z,94.37
2019-02-06T03:38:52.361Z,69.45
2019-02-06T03:41:19.406Z,75.90
2019-02-06T03:43:46.422Z,69.07
2019-02-06T03:46:13.475Z,70.37
2019-02-06T03:48:40.802Z,77.42
2019-02-06T03:51:07.835Z,71.75
2019-02-06T03:53:34.888Z,68.42
2019-02-06T03:56:01.937Z,76.40
2019-02-06T03:58:28.993Z,63.73
2019-02-06T04:00:56.033Z,62.67
2019-02-06T04:03:23.061Z,60.65
2019-02-06T04:05:50.097Z,60.45
2019-02-06T04:08:17.500Z,61.88
2019-02-06T04:10:44.531Z,72.78
2019-02-06T04:13:11.569Z,91.92
2019-02-06T04:15:38.622Z,79.17
2019-02-06T04:18:05.663Z,89.22
2019-02-06T04:20:32.741Z,93.12
2019-02-06T04:22:59.781Z,73.97
2019-02-06T04:25:26.838Z,68.07
2019-02-06T04:27:53.872Z,70.03
2019-02-06T04:30:20.889Z,62.83
2019-02-06T04:32:48.039Z,70.40
2019-02-06T04:35:15.167Z,72.60
2019-02-06T04:37:42.181Z,62.58
2019-02-06T04:40:11.913Z,66.72
2019-02-06T04:42:38.933Z,71.10
2019-02-06T04:45:07.002Z,61.88
2019-02-06T04:47:34.043Z,62.98
2019-02-06T04:50:01.114Z,67.10
2019-02-06T04:52:28.111Z,67.15
2019-02-06T04:54:55.162Z,89.50
2019-02-06T04:57:22.199Z,67.97
2019-02-06T04:59:49.238Z,79.87
2019-02-06T05:02:16.280Z,70.35
2019-02-06T05:04:43.497Z,101.30
2019-02-06T05:07:18.602Z,61.30
2019-02-06T05:09:39.500Z,88.90
2019-02-06T05:12:09.525Z,123.25
2019-02-06T05:14:35.498Z,81.12
2019-02-06T05:17:02.571Z,75.92
2019-02-06T05:19:29.572Z,69.95
2019-02-06T05:21:56.921Z,97.17
2019-02-06T05:24:23.949Z,114.95
2019-02-06T05:26:51.085Z,169.90
2019-02-06T05:29:18.144Z,86.40
2019-02-06T05:31:45.215Z,86.70
2019-02-06T05:34:12.256Z,106.95
2019-02-06T05:36:39.326Z,86.80
2019-02-06T05:39:07.346Z,79.97
2019-02-06T05:41:34.690Z,80.53
2019-02-06T05:44:01.753Z,71.25
2019-02-06T05:46:28.782Z,58.17
2019-02-06T05:48:55.820Z,86.53
2019-02-06T05:51:22.870Z,78.78
2019-02-06T05:53:49.917Z,71.25
2019-02-06T05:56:16.992Z,71.77
2019-02-06T05:58:44.031Z,84.87
2019-02-06T06:01:11.357Z,89.28
2019-02-06T06:03:38.412Z,77.10
2019-02-06T06:06:05.455Z,66.07
2019-02-06T06:08:32.499Z,75.97
2019-02-06T06:10:59.531Z,80.87
2019-02-06T06:13:26.576Z,101.53
2019-02-06T06:15:53.639Z,78.55
2019-02-06T06:18:21.972Z,68.17
2019-02-06T06:20:49.395Z,84.45
2019-02-06T06:23:16.778Z,79.03
2019-02-06T06:25:43.949Z,82.72
2019-02-06T06:28:10.979Z,96.63
2019-02-06T06:30:38.048Z,77.95
2019-02-06T06:33:05.079Z,117.90
2019-02-06T06:35:32.115Z,97.45
2019-02-06T06:38:02.881Z,73.70
2019-02-06T06:40:28.136Z,89.70
2019-02-06T06:42:55.171Z,69.37
2019-02-06T06:45:22.742Z,110.35
2019-02-06T06:47:50.006Z,94.77
2019-02-06T06:50:18.769Z,87.47
2019-02-06T06:52:45.822Z,71.33
2019-02-06T06:55:13.514Z,86.95
2019-02-06T06:57:40.963Z,79.42
2019-02-06T07:00:12.268Z,83.25
2019-02-06T07:02:39.333Z,92.92
2019-02-06T07:05:06.814Z,80.17
2019-02-06T07:07:33.869Z,63.30
2019-02-06T07:10:00.937Z,77.72
2019-02-06T07:12:27.959Z,68.60
2019-02-06T07:14:55.312Z,71.92
2019-02-06T07:17:22.349Z,67.10
2019-02-06T07:19:49.397Z,60.60
2019-02-06T07:22:16.454Z,86.45
2019-02-06T07:24:43.508Z,115.00
2019-02-06T07:27:10.605Z,70.42
2019-02-06T07:29:37.654Z,65.30
2019-02-06T07:32:04.695Z,71.15
2019-02-06T07:34:31.937Z,49.70
2019-02-06T07:36:58.982Z,52.90
2019-02-06T07:39:26.015Z,47.58
2019-02-06T07:41:53.088Z,50.92
2019-02-06T07:44:20.126Z,50.43
2019-02-06T07:46:47.191Z,55.25
2019-02-06T07:49:14.233Z,52.80
2019-02-06T07:51:41.292Z,51.90
2019-02-06T07:54:08.328Z,62.50
2019-02-06T07:56:35.391Z,67.00
2019-02-06T07:59:02.444Z,61.75
2019-02-06T08:01:29.470Z,69.75
2019-02-06T08:03:56.502Z,58.17
2019-02-06T08:06:23.539Z,65.83
2019-02-06T08:08:50.574Z,71.25
2019-02-06T08:11:17.605Z,73.28
2019-02-06T08:13:44.662Z,67.00
2019-02-06T08:16:11.701Z,72.03
2019-02-06T08:18:38.843Z,75.62
2019-02-06T08:21:05.896Z,81.90
2019-02-06T08:23:32.935Z,72.00
2019-02-06T08:25:59.978Z,61.53
2019-02-06T08:28:26.995Z,65.00
2019-02-06T08:30:54.453Z,67.67
2019-02-06T08:33:21.483Z,63.87
2019-02-06T08:35:48.521Z,73.12
2019-02-06T08:38:15.551Z,86.55
2019-02-06T08:40:42.609Z,82.53
2019-02-06T08:43:09.747Z,78.40
2019-02-06T08:45:36.791Z,78.37
2019-02-06T08:48:04.011Z,80.75
2019-02-06T08:50:31.190Z,83.62
2019-02-06T08:52:58.218Z,72.75
2019-02-06T08:55:26.729Z,75.87
2019-02-06T08:57:53.991Z,68.07
2019-02-06T09:00:26.296Z,62.45
2019-02-06T09:02:53.439Z,68.28
2019-02-06T09:05:20.508Z,55.83
2019-02-06T09:07:47.843Z,62.85
2019-02-06T09:10:16.385Z,59.75
2019-02-06T09:12:43.441Z,59.58
2019-02-06T09:15:11.209Z,59.90
2019-02-06T09:17:38.241Z,69.30
2019-02-06T09:20:08.612Z,64.62
2019-02-06T09:22:35.653Z,64.92
2019-02-06T09:25:03.201Z,56.60
2019-02-06T09:27:30.266Z,53.20
2019-02-06T09:29:57.326Z,66.42
2019-02-06T09:32:24.378Z,57.48
2019-02-06T09:34:51.434Z,72.65
2019-02-06T09:37:18.462Z,58.55
2019-02-06T09:39:45.537Z,69.10
2019-02-06T09:42:12.606Z,71.20
2019-02-06T09:44:39.778Z,60.35
2019-02-06T09:47:06.809Z,63.60
2019-02-06T09:49:33.869Z,53.28
2019-02-06T09:52:00.907Z,57.38
2019-02-06T09:54:27.967Z,58.38
2019-02-06T09:56:55.011Z,57.78
2019-02-06T09:59:22.064Z,54.45
2019-02-06T10:01:49.109Z,59.70
2019-02-06T10:04:16.170Z,58.45
2019-02-06T10:06:43.194Z,54.58
2019-02-06T10:09:10.253Z,57.17
2019-02-06T10:11:37.304Z,55.92
2019-02-06T10:14:04.356Z,58.70
2019-02-06T10:16:31.408Z,53.45
2019-02-06T10:18:58.440Z,55.25
2019-02-06T10:21:25.699Z,60.25
2019-02-06T10:23:52.790Z,55.35
2019-02-06T10:26:19.881Z,49.38
2019-02-06T10:28:46.939Z,54.93
2019-02-06T10:31:14.005Z,55.23
2019-02-06T10:33:41.068Z,58.15
2019-02-06T10:36:08.132Z,58.10
2019-02-06T10:38:35.180Z,56.08
2019-02-06T10:41:04.564Z,53.05
2019-02-06T10:43:35.064Z,54.53
2019-02-06T10:46:00.366Z,55.17
2019-02-06T10:48:27.420Z,54.77
2019-02-06T10:50:54.474Z,52.62
2019-02-06T10:53:21.644Z,50.45
2019-02-06T10:55:48.686Z,48.68
2019-02-06T10:58:16.039Z,58.70
2019-02-06T11:00:46.259Z,60.15
2019-02-06T11:03:13.322Z,60.90
2019-02-06T11:05:40.567Z,65.20
2019-02-06T11:08:07.607Z,63.35
2019-02-06T11:10:34.692Z,52.75
2019-02-06T11:13:02.052Z,64.42
2019-02-06T11:15:29.627Z,51.30
2019-02-06T11:17:56.765Z,56.55
2019-02-06T11:20:24.320Z,58.33
2019-02-06T11:22:51.367Z,56.80
2019-02-06T11:25:18.426Z,65.90
2019-02-06T11:27:45.481Z,54.15
2019-02-06T11:30:15.371Z,52.45
2019-02-06T11:32:42.542Z,56.58
2019-02-06T11:35:09.955Z,68.62
2019-02-06T11:37:37.004Z,58.08
2019-02-06T11:40:06.147Z,63.00
2019-02-06T11:42:33.189Z,50.05
2019-02-06T11:45:00.239Z,58.80
2019-02-06T11:47:27.323Z,59.03
2019-02-06T11:49:56.578Z,46.88
2019-02-06T11:52:23.876Z,51.65
2019-02-06T11:54:50.955Z,53.50
2019-02-06T11:57:18.043Z,51.08
2019-02-06T11:59:45.110Z,57.33
2019-02-06T12:02:13.215Z,50.80
2019-02-06T12:04:40.425Z,56.42
2019-02-06T12:07:07.495Z,57.17
2019-02-06T12:09:34.846Z,62.93
2019-02-06T12:12:01.916Z,58.10
2019-02-06T12:14:29.007Z,57.73
2019-02-06T12:16:56.064Z,56.70
2019-02-06T12:19:23.143Z,58.65
2019-02-06T12:21:50.192Z,49.18
2019-02-06T12:24:17.271Z,53.95
2019-02-06T12:26:44.336Z,56.40
2019-02-06T12:29:11.929Z,64.72
2019-02-06T12:31:39.026Z,57.25
2019-02-06T12:34:06.062Z,57.17
2019-02-06T12:36:33.108Z,67.47
2019-02-06T12:39:00.174Z,54.40
2019-02-06T12:41:27.253Z,61.58
2019-02-06T12:43:54.310Z,60.78
2019-02-06T12:46:21.360Z,63.48
2019-02-06T12:48:48.428Z,67.70
2019-02-06T12:51:15.498Z,64.55
2019-02-06T12:53:42.532Z,56.83
2019-02-06T12:56:09.612Z,54.00
2019-02-06T12:58:36.700Z,64.65
2019-02-06T13:01:04.506Z,52.40
2019-02-06T13:03:31.576Z,55.75
2019-02-06T13:05:58.614Z,52.53
2019-02-06T13:08:25.670Z,60.78
2019-02-06T13:10:52.751Z,52.65
2019-02-06T13:13:19.838Z,47.85
2019-02-06T13:15:47.561Z,51.63
2019-02-06T13:18:14.689Z,53.42
2019-02-06T13:20:41.751Z,49.93
2019-02-06T13:23:09.679Z,70.42
2019-02-06T13:25:36.768Z,59.67
2019-02-06T13:28:04.401Z,56.73
2019-02-06T13:30:33.773Z,55.45
2019-02-06T13:33:00.873Z,45.10
2019-02-06T13:35:27.963Z,54.48
2019-02-06T13:37:55.023Z,55.45
2019-02-06T13:40:22.794Z,51.70
2019-02-06T13:42:49.871Z,57.23
2019-02-06T13:45:22.214Z,60.60
2019-02-06T13:47:49.391Z,65.95
2019-02-06T13:50:22.121Z,51.83
2019-02-06T13:52:45.761Z,53.52
2019-02-06T13:55:14.586Z,47.48
2019-02-06T13:57:41.711Z,56.77
2019-02-06T14:00:14.619Z,53.40
2019-02-06T14:02:42.117Z,52.08
2019-02-06T14:05:09.555Z,57.65
2019-02-06T14:07:36.629Z,51.30
2019-02-06T14:10:04.477Z,41.40
2019-02-06T14:12:31.540Z,54.50
2019-02-06T14:14:58.611Z,50.08
2019-02-06T14:17:25.690Z,49.20
2019-02-06T14:19:53.164Z,49.58
2019-02-06T14:22:20.260Z,53.78
2019-02-06T14:25:05.696Z,51.30
2019-02-06T14:28:00.668Z,46.83
2019-02-06T14:30:48.361Z,60.25
2019-02-06T14:33:46.944Z,48.15
2019-02-06T14:36:50.465Z,55.90
2019-02-06T14:39:30.711Z,64.47
2019-02-06T14:42:32.224Z,48.58
2019-02-06T14:45:28.304Z,50.83
2019-02-06T14:48:35.076Z,52.58
2019-02-06T14:51:11.739Z,50.17
2019-02-06T14:54:20.645Z,52.88
2019-02-06T14:57:15.996Z,58.75
2019-02-06T15:00:26.938Z,53.65
2019-02-06T15:03:25.540Z,56.20
2019-02-06T15:06:34.752Z,61.53
2019-02-06T15:09:35.946Z,59.30
2019-02-06T15:12:44.961Z,53.30
2019-02-06T15:16:05.701Z,52.55
2019-02-06T15:18:48.545Z,60.30
2019-02-06T15:22:04.820Z,57.75
2019-02-06T15:25:01.961Z,65.00
2019-02-06T15:28:03.030Z,59.63
2019-02-06T15:31:23.901Z,52.98
2019-02-06T15:34:28.010Z,58.45
2019-02-06T15:37:36.073Z,55.55
2019-02-06T15:40:36.851Z,63.83
2019-02-06T15:43:19.485Z,58.45
2019-02-06T15:46:16.885Z,64.22
2019-02-06T15:49:28.777Z,64.20
2019-02-06T15:52:18.978Z,66.97
2019-02-06T15:55:36.915Z,65.90
2019-02-06T15:58:44.731Z,61.55
2019-02-06T16:01:34.643Z,61.42
2019-02-06T16:04:41.890Z,64.32
2019-02-06T16:07:35.801Z,56.65
2019-02-06T16:10:48.033Z,64.95
2019-02-06T16:13:39.264Z,65.95
2019-02-06T16:16:53.892Z,51.58
2019-02-06T16:20:05.969Z,52.38
2019-02-06T16:23:04.407Z,61.77
2019-02-06T16:26:07.191Z,60.03
2019-02-06T16:28:48.632Z,63.87
2019-02-06T16:31:56.399Z,55.75
2019-02-06T16:34:41.860Z,56.77
2019-02-06T16:37:28.620Z,61.70
2019-02-06T16:40:29.893Z,55.52
2019-02-06T16:43:33.028Z,50.03
2019-02-06T16:46:42.489Z,54.27
2019-02-06T16:49:52.957Z,47.15
2019-02-06T16:53:03.469Z,50.98
2019-02-06T16:56:16.002Z,62.35
2019-02-06T16:59:15.370Z,48.33
2019-02-06T17:02:18.740Z,52.13
2019-02-06T17:05:30.784Z,55.43
2019-02-06T17:08:16.354Z,51.13
2019-02-06T17:10:58.680Z,74.22
2019-02-06T17:14:00.137Z,54.18
2019-02-06T17:17:14.286Z,58.92
2019-02-06T17:20:34.684Z,84.37
2019-02-06T17:23:45.525Z,55.52
2019-02-06T17:26:33.142Z,61.08
2019-02-06T17:29:52.005Z,65.28
2019-02-06T17:33:12.946Z,57.43
2019-02-06T17:36:10.806Z,81.95
2019-02-06T17:39:09.964Z,62.80
2019-02-06T17:42:00.381Z,77.85
2019-02-06T17:44:50.684Z,62.00
2019-02-06T17:47:55.934Z,125.07
2019-02-06T17:51:08.416Z,103.67
2019-02-06T17:53:38.500Z,64.80
2019-02-06T17:56:06.527Z,68.62
2019-02-06T17:58:54.262Z,73.85
2019-02-06T18:04:27.969Z,65.32
2019-02-06T18:06:55.613Z,64.72
2019-02-06T18:09:22.997Z,67.65
2019-02-06T18:11:51.531Z,82.15
2019-02-06T18:17:21.906Z,68.42
2019-02-06T18:19:49.524Z,89.22
2019-02-06T19:20:59.234Z,99.95
2019-02-06T19:23:26.566Z,83.42
2019-02-06T19:26:21.512Z,124.22
2019-02-06T19:28:48.741Z,73.42
2019-02-06T19:31:16.066Z,99.60
2019-02-06T19:33:44.280Z,82.67
2019-02-06T19:36:12.646Z,95.87
2019-02-06T19:42:02.482Z,79.65
2019-02-06T19:44:32.500Z,73.40
2019-02-06T19:46:59.921Z,82.00
2019-02-06T19:49:27.873Z,83.05
2019-02-06T19:51:56.624Z,89.55
2019-02-06T19:54:26.032Z,80.53
2019-02-06T19:56:54.965Z,76.67
2019-02-06T19:59:22.698Z,105.63
2019-02-06T20:01:50.388Z,74.22
2019-02-06T20:04:18.269Z,81.47
2019-02-06T20:06:57.990Z,67.37
2019-02-06T20:09:25.749Z,97.50
2019-02-06T20:11:53.342Z,83.47
2019-02-06T20:14:21.201Z,77.15
2019-02-06T20:16:48.594Z,75.30
2019-02-06T20:19:16.751Z,89.35
2019-02-06T20:21:46.104Z,69.95
2019-02-06T20:24:13.539Z,96.80
2019-02-06T20:26:41.947Z,102.22
2019-02-06T20:29:09.314Z,147.13
2019-02-06T20:31:36.940Z,114.42
2019-02-06T20:34:05.658Z,72.32
2019-02-06T20:36:33.298Z,92.97
2019-02-06T20:39:03.115Z,86.32
2019-02-06T20:41:30.366Z,81.53
2019-02-06T20:43:57.504Z,87.90
2019-02-06T20:46:24.837Z,76.47
2019-02-06T20:48:57.391Z,73.05
2019-02-06T20:51:24.596Z,110.57
2019-02-06T20:53:52.002Z,90.55
2019-02-06T20:56:22.839Z,82.27
2019-02-06T20:58:52.635Z,79.45
2019-02-06T21:01:20.149Z,81.12
2019-02-06T21:03:47.675Z,99.10
2019-02-06T21:06:14.887Z,78.30
2019-02-06T21:08:42.073Z,80.42
2019-02-06T21:11:10.091Z,81.25
2019-02-06T21:13:37.287Z,70.83
2019-02-06T21:16:04.790Z,83.70
2019-02-06T21:18:32.049Z,78.85
2019-02-06T21:20:59.106Z,80.30
2019-02-06T21:23:27.000Z,92.08
2019-02-06T21:25:54.388Z,147.53
2019-02-06T21:28:21.415Z,81.22
2019-02-06T21:30:48.591Z,122.10
2019-02-06T21:33:15.783Z,71.97
2019-02-06T21:35:43.084Z,84.40
2019-02-06T21:38:10.157Z,89.37
2019-02-06T21:40:37.231Z,70.65
2019-02-06T21:43:04.780Z,78.97
2019-02-06T21:45:31.857Z,72.10
2019-02-06T21:47:59.254Z,89.05
2019-02-06T21:50:46.041Z,104.17
2019-02-06T21:53:13.064Z,65.17
2019-02-06T21:55:40.159Z,110.40
2019-02-06T22:00:53.768Z,115.70
2019-02-06T22:03:21.093Z,115.97
2019-02-06T22:05:48.142Z,105.37
2019-02-06T22:08:15.151Z,108.07
2019-02-06T22:10:42.244Z,152.70
2019-02-06T22:13:09.260Z,71.65
2019-02-06T22:15:36.829Z,96.65
2019-02-06T22:18:03.811Z,79.25
2019-02-06T22:20:31.132Z,114.40
2019-02-06T22:22:58.186Z,96.22
2019-02-06T22:25:25.183Z,104.27
2019-02-06T22:27:52.196Z,82.50
2019-02-06T22:30:21.103Z,97.02
2019-02-06T22:32:48.099Z,96.57
2019-02-06T22:35:15.044Z,102.72
2019-02-06T22:37:42.401Z,121.87
2019-02-06T22:40:11.697Z,97.37
2019-02-06T22:42:38.725Z,93.42
2019-02-06T22:45:07.782Z,90.62
2019-02-06T22:47:34.767Z,87.50
2019-02-06T22:50:01.735Z,90.07
2019-02-06T22:52:28.899Z,121.15
2019-02-06T22:54:56.186Z,88.75
2019-02-06T22:57:23.216Z,96.80
2019-02-06T22:59:50.199Z,86.90
2019-02-06T23:02:17.273Z,87.75
2019-02-06T23:04:44.269Z,77.27
2019-02-06T23:07:11.227Z,89.85
2019-02-06T23:09:38.467Z,87.35
2019-02-06T23:12:05.737Z,88.42
2019-02-06T23:14:33.022Z,86.05
2019-02-06T23:17:00.464Z,88.58
2019-02-06T23:19:27.409Z,78.85
2019-02-06T23:21:54.779Z,79.50
2019-02-06T23:24:21.813Z,88.00
2019-02-06T23:26:48.829Z,81.12
2019-02-06T23:29:16.162Z,74.07
2019-02-06T23:31:43.203Z,91.63
2019-02-06T23:34:10.183Z,95.07
2019-02-06T23:36:37.200Z,95.87
2019-02-06T23:42:31.749Z,75.25
2019-02-06T23:44:58.708Z,82.08
2019-02-06T23:47:25.794Z,66.70
2019-02-06T23:49:52.790Z,68.80
2019-02-06T23:52:19.892Z,64.12
2019-02-06T23:54:46.890Z,66.20
2019-02-06T23:57:14.154Z,76.33
2019-02-06T23:59:41.168Z,66.53
